sensor_id;sensor_type;location;lat;lon;timestamp;temperature;humidity
4366;DHT22;2196;47.422;9.656;2023-02-27T00:01:34;-0.10;99.90
4366;DHT22;2196;47.422;9.656;2023-02-27T00:04:01;-0.20;99.90
4366;DHT22;2196;47.422;9.656;2023-02-27T00:06:28;-0.20;99.90
4366;DHT22;2196;47.422;9.656;2023-02-27T00:08:55;-0.20;99.90
4366;DHT22;2196;47.422;9.656;2023-02-27T00:11:22;-0.20;99.90
4366;DHT22;2196;47.422;9.656;2023-02-27T00:13:49;-0.10;99.90
4366;DHT22;2196;47.422;9.656;2023-02-27T00:16:17;-0.20;99.90
4366;DHT22;2196;47.422;9.656;2023-02-27T00:18:44;-0.10;99.90
4366;DHT22;2196;47.422;9.656;2023-02-27T00:21:11;-0.10;99.90
4366;DHT22;2196;47.422;9.656;2023-02-27T00:23:38;-0.20;99.90
4366;DHT22;2196;47.422;9.656;2023-02-27T00:26:05;-0.20;99.90
4366;DHT22;2196;47.422;9.656;2023-02-27T00:28:32;-0.20;99.90
4366;DHT22;2196;47.422;9.656;2023-02-27T00:30:59;-0.20;99.90
4366;DHT22;2196;47.422;9.656;2023-02-27T00:33:27;-0.20;99.90
4366;DHT22;2196;47.422;9.656;2023-02-27T00:35:55;-0.30;99.90
4366;DHT22;2196;47.422;9.656;2023-02-27T00:38:22;-0.40;99.90
4366;DHT22;2196;47.422;9.656;2023-02-27T00:40:49;-0.30;99.90
4366;DHT22;2196;47.422;9.656;2023-02-27T00:43:16;-0.30;99.90
4366;DHT22;2196;47.422;9.656;2023-02-27T00:45:43;-0.20;99.90
4366;DHT22;2196;47.422;9.656;2023-02-27T00:48:10;-0.30;99.90
4366;DHT22;2196;47.422;9.656;2023-02-27T00:50:38;-0.30;99.90
4366;DHT22;2196;47.422;9.656;2023-02-27T00:53:05;-0.20;99.90
4366;DHT22;2196;47.422;9.656;2023-02-27T00:55:32;-0.30;99.90
4366;DHT22;2196;47.422;9.656;2023-02-27T00:57:59;-0.40;99.90
4366;DHT22;2196;47.422;9.656;2023-02-27T01:00:26;-0.30;99.90
4366;DHT22;2196;47.422;9.656;2023-02-27T01:02:53;-0.30;99.90
4366;DHT22;2196;47.422;9.656;2023-02-27T01:05:20;-0.40;99.90
4366;DHT22;2196;47.422;9.656;2023-02-27T01:07:49;-0.30;99.90
4366;DHT22;2196;47.422;9.656;2023-02-27T01:10:16;-0.40;99.90
4366;DHT22;2196;47.422;9.656;2023-02-27T01:12:44;-0.40;99.90
4366;DHT22;2196;47.422;9.656;2023-02-27T01:15:11;-0.40;99.90
4366;DHT22;2196;47.422;9.656;2023-02-27T01:17:39;-0.50;99.90
4366;DHT22;2196;47.422;9.656;2023-02-27T01:20:11;-0.40;99.90
4366;DHT22;2196;47.422;9.656;2023-02-27T01:22:40;-0.40;99.90
4366;DHT22;2196;47.422;9.656;2023-02-27T01:25:09;-0.40;99.90
4366;DHT22;2196;47.422;9.656;2023-02-27T01:27:36;-0.40;99.90
4366;DHT22;2196;47.422;9.656;2023-02-27T01:30:03;-0.40;99.90
4366;DHT22;2196;47.422;9.656;2023-02-27T01:32:31;-0.30;99.90
4366;DHT22;2196;47.422;9.656;2023-02-27T01:34:58;-0.40;99.90
4366;DHT22;2196;47.422;9.656;2023-02-27T01:37:25;-0.40;99.90
4366;DHT22;2196;47.422;9.656;2023-02-27T01:39:52;-0.30;99.90
4366;DHT22;2196;47.422;9.656;2023-02-27T01:42:22;-0.30;99.90
4366;DHT22;2196;47.422;9.656;2023-02-27T01:45:27;-0.40;99.90
4366;DHT22;2196;47.422;9.656;2023-02-27T01:47:58;-0.30;99.90
4366;DHT22;2196;47.422;9.656;2023-02-27T01:50:26;-0.30;99.90
4366;DHT22;2196;47.422;9.656;2023-02-27T01:52:55;-0.30;99.90
4366;DHT22;2196;47.422;9.656;2023-02-27T01:55:24;-0.30;99.90
4366;DHT22;2196;47.422;9.656;2023-02-27T01:57:54;-0.30;99.90
4366;DHT22;2196;47.422;9.656;2023-02-27T02:00:22;-0.40;99.90
4366;DHT22;2196;47.422;9.656;2023-02-27T02:02:55;-0.50;99.90
4366;DHT22;2196;47.422;9.656;2023-02-27T02:05:25;-0.50;99.90
4366;DHT22;2196;47.422;9.656;2023-02-27T02:07:52;-0.40;99.90
4366;DHT22;2196;47.422;9.656;2023-02-27T02:10:20;-0.50;99.90
4366;DHT22;2196;47.422;9.656;2023-02-27T02:12:49;-0.60;99.90
4366;DHT22;2196;47.422;9.656;2023-02-27T02:15:17;-0.60;99.90
4366;DHT22;2196;47.422;9.656;2023-02-27T02:17:52;-0.60;99.90
4366;DHT22;2196;47.422;9.656;2023-02-27T02:20:34;-0.60;99.90
4366;DHT22;2196;47.422;9.656;2023-02-27T02:23:29;-0.60;99.90
4366;DHT22;2196;47.422;9.656;2023-02-27T02:26:27;-0.60;99.90
4366;DHT22;2196;47.422;9.656;2023-02-27T02:35:55;-0.60;99.90
4366;DHT22;2196;47.422;9.656;2023-02-27T02:41:23;-0.60;99.90
4366;DHT22;2196;47.422;9.656;2023-02-27T02:43:59;-0.60;99.90
4366;DHT22;2196;47.422;9.656;2023-02-27T02:46:33;-0.70;99.90
4366;DHT22;2196;47.422;9.656;2023-02-27T02:49:07;-0.70;99.90
4366;DHT22;2196;47.422;9.656;2023-02-27T02:51:42;-0.70;99.90
4366;DHT22;2196;47.422;9.656;2023-02-27T02:54:16;-0.70;99.90
4366;DHT22;2196;47.422;9.656;2023-02-27T02:56:48;-0.70;99.90
4366;DHT22;2196;47.422;9.656;2023-02-27T02:59:29;-0.70;99.90
4366;DHT22;2196;47.422;9.656;2023-02-27T03:02:01;-0.70;99.90
4366;DHT22;2196;47.422;9.656;2023-02-27T03:04:33;-0.60;99.90
4366;DHT22;2196;47.422;9.656;2023-02-27T03:07:05;-0.60;99.90
4366;DHT22;2196;47.422;9.656;2023-02-27T03:09:39;-0.60;99.90
4366;DHT22;2196;47.422;9.656;2023-02-27T03:12:10;-0.60;99.90
4366;DHT22;2196;47.422;9.656;2023-02-27T03:14:41;-0.60;99.90
4366;DHT22;2196;47.422;9.656;2023-02-27T03:17:15;-0.60;99.90
4366;DHT22;2196;47.422;9.656;2023-02-27T03:19:47;-0.60;99.90
4366;DHT22;2196;47.422;9.656;2023-02-27T03:22:18;-0.70;99.90
4366;DHT22;2196;47.422;9.656;2023-02-27T03:24:51;-0.70;99.90
4366;DHT22;2196;47.422;9.656;2023-02-27T03:27:20;-0.70;99.90
4366;DHT22;2196;47.422;9.656;2023-02-27T03:29:51;-0.70;99.90
4366;DHT22;2196;47.422;9.656;2023-02-27T03:32:23;-0.60;99.90
4366;DHT22;2196;47.422;9.656;2023-02-27T03:34:53;-0.70;99.90
4366;DHT22;2196;47.422;9.656;2023-02-27T03:37:26;-0.70;99.90
4366;DHT22;2196;47.422;9.656;2023-02-27T03:40:03;-0.70;99.90
4366;DHT22;2196;47.422;9.656;2023-02-27T03:42:36;-0.70;99.90
4366;DHT22;2196;47.422;9.656;2023-02-27T03:45:07;-0.60;99.90
4366;DHT22;2196;47.422;9.656;2023-02-27T03:47:36;-0.60;99.90
4366;DHT22;2196;47.422;9.656;2023-02-27T03:50:07;-0.60;99.90
4366;DHT22;2196;47.422;9.656;2023-02-27T03:52:35;-0.70;99.90
4366;DHT22;2196;47.422;9.656;2023-02-27T03:55:08;-0.70;99.90
4366;DHT22;2196;47.422;9.656;2023-02-27T03:57:36;-0.70;99.90
4366;DHT22;2196;47.422;9.656;2023-02-27T04:00:05;-0.70;99.90
4366;DHT22;2196;47.422;9.656;2023-02-27T04:02:34;-0.70;99.90
4366;DHT22;2196;47.422;9.656;2023-02-27T04:05:02;-0.70;99.90
4366;DHT22;2196;47.422;9.656;2023-02-27T04:07:42;-0.70;99.90
4366;DHT22;2196;47.422;9.656;2023-02-27T04:10:25;-0.70;99.90
4366;DHT22;2196;47.422;9.656;2023-02-27T04:13:16;-0.80;99.90
4366;DHT22;2196;47.422;9.656;2023-02-27T04:16:08;-0.80;99.90
4366;DHT22;2196;47.422;9.656;2023-02-27T04:18:53;-0.80;99.90
4366;DHT22;2196;47.422;9.656;2023-02-27T04:21:27;-0.80;99.90
4366;DHT22;2196;47.422;9.656;2023-02-27T04:24:01;-0.80;99.90
4366;DHT22;2196;47.422;9.656;2023-02-27T04:26:37;-0.90;99.90
4366;DHT22;2196;47.422;9.656;2023-02-27T04:29:06;-0.80;99.90
4366;DHT22;2196;47.422;9.656;2023-02-27T04:31:42;-0.80;99.90
4366;DHT22;2196;47.422;9.656;2023-02-27T04:34:17;-0.80;99.90
4366;DHT22;2196;47.422;9.656;2023-02-27T04:36:50;-0.80;99.90
4366;DHT22;2196;47.422;9.656;2023-02-27T04:39:23;-0.70;99.90
4366;DHT22;2196;47.422;9.656;2023-02-27T04:41:56;-0.80;99.90
4366;DHT22;2196;47.422;9.656;2023-02-27T04:44:25;-0.80;99.90
4366;DHT22;2196;47.422;9.656;2023-02-27T04:46:55;-0.80;99.90
4366;DHT22;2196;47.422;9.656;2023-02-27T04:49:25;-0.90;99.90
4366;DHT22;2196;47.422;9.656;2023-02-27T04:51:58;-0.80;99.90
4366;DHT22;2196;47.422;9.656;2023-02-27T04:54:30;-0.80;99.90
4366;DHT22;2196;47.422;9.656;2023-02-27T04:57:04;-0.80;99.90
4366;DHT22;2196;47.422;9.656;2023-02-27T04:59:35;-0.80;99.90
4366;DHT22;2196;47.422;9.656;2023-02-27T05:02:07;-0.70;99.90
4366;DHT22;2196;47.422;9.656;2023-02-27T05:04:41;-0.80;99.90
4366;DHT22;2196;47.422;9.656;2023-02-27T05:07:14;-0.80;99.90
4366;DHT22;2196;47.422;9.656;2023-02-27T05:09:45;-0.80;99.90
4366;DHT22;2196;47.422;9.656;2023-02-27T05:12:18;-0.70;99.90
4366;DHT22;2196;47.422;9.656;2023-02-27T05:14:50;-0.70;99.90
4366;DHT22;2196;47.422;9.656;2023-02-27T05:17:21;-0.70;99.90
4366;DHT22;2196;47.422;9.656;2023-02-27T05:19:49;-0.70;99.90
4366;DHT22;2196;47.422;9.656;2023-02-27T05:22:23;-0.60;99.90
4366;DHT22;2196;47.422;9.656;2023-02-27T05:24:57;-0.60;99.90
4366;DHT22;2196;47.422;9.656;2023-02-27T05:27:34;-0.70;99.90
4366;DHT22;2196;47.422;9.656;2023-02-27T05:30:09;-0.80;99.90
4366;DHT22;2196;47.422;9.656;2023-02-27T05:32:43;-0.80;99.90
4366;DHT22;2196;47.422;9.656;2023-02-27T05:35:16;-0.80;99.90
4366;DHT22;2196;47.422;9.656;2023-02-27T05:37:48;-0.70;99.90
4366;DHT22;2196;47.422;9.656;2023-02-27T05:40:21;-0.70;99.90
4366;DHT22;2196;47.422;9.656;2023-02-27T05:42:56;-0.60;99.90
4366;DHT22;2196;47.422;9.656;2023-02-27T05:45:28;-0.60;99.90
4366;DHT22;2196;47.422;9.656;2023-02-27T05:47:59;-0.70;99.90
4366;DHT22;2196;47.422;9.656;2023-02-27T05:50:30;-0.60;99.90
4366;DHT22;2196;47.422;9.656;2023-02-27T05:53:01;-0.70;99.90
4366;DHT22;2196;47.422;9.656;2023-02-27T05:55:32;-0.70;99.90
4366;DHT22;2196;47.422;9.656;2023-02-27T05:58:07;-0.70;99.90
4366;DHT22;2196;47.422;9.656;2023-02-27T06:00:39;-0.70;99.90
4366;DHT22;2196;47.422;9.656;2023-02-27T06:03:06;-0.70;99.90
4366;DHT22;2196;47.422;9.656;2023-02-27T06:05:35;-0.70;99.90
4366;DHT22;2196;47.422;9.656;2023-02-27T06:08:02;-0.60;99.90
4366;DHT22;2196;47.422;9.656;2023-02-27T06:10:30;-0.60;99.90
4366;DHT22;2196;47.422;9.656;2023-02-27T06:12:57;-0.50;99.90
4366;DHT22;2196;47.422;9.656;2023-02-27T06:15:25;-0.50;99.90
4366;DHT22;2196;47.422;9.656;2023-02-27T06:17:53;-0.60;99.90
4366;DHT22;2196;47.422;9.656;2023-02-27T06:20:21;-0.60;99.90
4366;DHT22;2196;47.422;9.656;2023-02-27T06:22:47;-0.60;99.90
4366;DHT22;2196;47.422;9.656;2023-02-27T06:25:14;-0.60;99.90
4366;DHT22;2196;47.422;9.656;2023-02-27T06:27:41;-0.50;99.90
4366;DHT22;2196;47.422;9.656;2023-02-27T06:30:09;-0.50;99.90
4366;DHT22;2196;47.422;9.656;2023-02-27T06:32:40;-0.40;99.90
4366;DHT22;2196;47.422;9.656;2023-02-27T06:35:08;-0.40;99.90
4366;DHT22;2196;47.422;9.656;2023-02-27T06:37:35;-0.30;99.90
4366;DHT22;2196;47.422;9.656;2023-02-27T06:40:06;-0.20;99.90
4366;DHT22;2196;47.422;9.656;2023-02-27T06:42:36;-0.20;99.90
4366;DHT22;2196;47.422;9.656;2023-02-27T06:45:03;-0.10;99.90
4366;DHT22;2196;47.422;9.656;2023-02-27T06:47:30;0.10;99.90
4366;DHT22;2196;47.422;9.656;2023-02-27T06:50:00;0.20;99.90
4366;DHT22;2196;47.422;9.656;2023-02-27T06:52:28;0.30;99.90
4366;DHT22;2196;47.422;9.656;2023-02-27T06:54:55;0.40;99.90
4366;DHT22;2196;47.422;9.656;2023-02-27T06:57:22;0.60;99.90
4366;DHT22;2196;47.422;9.656;2023-02-27T06:59:49;0.90;99.90
4366;DHT22;2196;47.422;9.656;2023-02-27T07:02:17;1.20;99.90
4366;DHT22;2196;47.422;9.656;2023-02-27T07:04:44;1.40;99.90
4366;DHT22;2196;47.422;9.656;2023-02-27T07:07:12;1.70;99.90
4366;DHT22;2196;47.422;9.656;2023-02-27T07:09:39;1.80;99.90
4366;DHT22;2196;47.422;9.656;2023-02-27T07:12:07;1.90;99.90
4366;DHT22;2196;47.422;9.656;2023-02-27T07:14:34;2.00;99.90
4366;DHT22;2196;47.422;9.656;2023-02-27T07:17:01;1.90;99.90
4366;DHT22;2196;47.422;9.656;2023-02-27T07:19:29;2.00;99.90
4366;DHT22;2196;47.422;9.656;2023-02-27T07:21:58;2.00;99.90
4366;DHT22;2196;47.422;9.656;2023-02-27T07:24:26;2.00;99.90
4366;DHT22;2196;47.422;9.656;2023-02-27T07:26:53;2.10;99.90
4366;DHT22;2196;47.422;9.656;2023-02-27T07:29:20;2.20;99.90
4366;DHT22;2196;47.422;9.656;2023-02-27T07:31:47;2.40;99.90
4366;DHT22;2196;47.422;9.656;2023-02-27T07:34:14;2.60;99.90
4366;DHT22;2196;47.422;9.656;2023-02-27T07:36:41;2.70;99.90
4366;DHT22;2196;47.422;9.656;2023-02-27T07:39:10;2.60;99.90
4366;DHT22;2196;47.422;9.656;2023-02-27T07:41:38;2.60;99.90
4366;DHT22;2196;47.422;9.656;2023-02-27T07:44:05;2.60;99.90
4366;DHT22;2196;47.422;9.656;2023-02-27T07:46:33;2.50;99.90
4366;DHT22;2196;47.422;9.656;2023-02-27T07:49:00;2.70;99.90
4366;DHT22;2196;47.422;9.656;2023-02-27T07:51:27;3.10;99.90
4366;DHT22;2196;47.422;9.656;2023-02-27T07:53:56;3.50;99.90
4366;DHT22;2196;47.422;9.656;2023-02-27T07:56:26;3.60;99.90
4366;DHT22;2196;47.422;9.656;2023-02-27T07:58:54;3.70;99.90
4366;DHT22;2196;47.422;9.656;2023-02-27T08:01:22;3.50;99.90
4366;DHT22;2196;47.422;9.656;2023-02-27T08:03:48;3.70;99.90
4366;DHT22;2196;47.422;9.656;2023-02-27T08:06:16;3.50;99.90
4366;DHT22;2196;47.422;9.656;2023-02-27T08:08:43;3.60;99.90
4366;DHT22;2196;47.422;9.656;2023-02-27T08:11:10;3.90;99.90
4366;DHT22;2196;47.422;9.656;2023-02-27T08:13:37;4.20;99.90
4366;DHT22;2196;47.422;9.656;2023-02-27T08:16:06;4.30;99.90
4366;DHT22;2196;47.422;9.656;2023-02-27T08:18:33;4.40;99.90
4366;DHT22;2196;47.422;9.656;2023-02-27T08:21:00;4.10;99.90
4366;DHT22;2196;47.422;9.656;2023-02-27T08:23:29;4.10;99.90
4366;DHT22;2196;47.422;9.656;2023-02-27T08:25:56;3.80;99.90
4366;DHT22;2196;47.422;9.656;2023-02-27T08:28:24;3.70;99.90
4366;DHT22;2196;47.422;9.656;2023-02-27T08:30:53;3.70;99.90
4366;DHT22;2196;47.422;9.656;2023-02-27T08:33:23;3.60;99.90
4366;DHT22;2196;47.422;9.656;2023-02-27T08:35:50;3.80;99.90
4366;DHT22;2196;47.422;9.656;2023-02-27T08:38:19;3.70;99.90
4366;DHT22;2196;47.422;9.656;2023-02-27T08:40:46;3.70;99.90
4366;DHT22;2196;47.422;9.656;2023-02-27T08:43:13;3.70;99.90
4366;DHT22;2196;47.422;9.656;2023-02-27T08:45:40;3.90;99.90
4366;DHT22;2196;47.422;9.656;2023-02-27T08:48:07;4.10;99.90
4366;DHT22;2196;47.422;9.656;2023-02-27T08:50:36;4.10;99.90
4366;DHT22;2196;47.422;9.656;2023-02-27T08:53:03;4.20;99.90
4366;DHT22;2196;47.422;9.656;2023-02-27T08:55:30;4.20;99.90
4366;DHT22;2196;47.422;9.656;2023-02-27T08:57:57;4.20;99.90
4366;DHT22;2196;47.422;9.656;2023-02-27T09:00:24;4.20;99.90
4366;DHT22;2196;47.422;9.656;2023-02-27T09:02:51;4.50;99.90
4366;DHT22;2196;47.422;9.656;2023-02-27T09:05:18;4.70;99.90
4366;DHT22;2196;47.422;9.656;2023-02-27T09:07:48;4.70;99.90
4366;DHT22;2196;47.422;9.656;2023-02-27T09:10:16;4.90;99.90
4366;DHT22;2196;47.422;9.656;2023-02-27T09:12:45;4.90;99.90
4366;DHT22;2196;47.422;9.656;2023-02-27T09:15:13;4.70;99.90
4366;DHT22;2196;47.422;9.656;2023-02-27T09:17:40;4.70;99.90
4366;DHT22;2196;47.422;9.656;2023-02-27T09:20:11;4.60;99.90
4366;DHT22;2196;47.422;9.656;2023-02-27T09:22:41;4.60;99.90
4366;DHT22;2196;47.422;9.656;2023-02-27T09:25:09;4.60;99.90
4366;DHT22;2196;47.422;9.656;2023-02-27T09:27:36;4.50;99.90
4366;DHT22;2196;47.422;9.656;2023-02-27T09:30:04;4.40;99.90
4366;DHT22;2196;47.422;9.656;2023-02-27T09:32:31;4.20;99.90
4366;DHT22;2196;47.422;9.656;2023-02-27T09:34:58;4.00;99.90
4366;DHT22;2196;47.422;9.656;2023-02-27T09:37:25;4.10;99.90
4366;DHT22;2196;47.422;9.656;2023-02-27T09:39:52;4.10;99.90
4366;DHT22;2196;47.422;9.656;2023-02-27T09:42:23;4.20;99.90
4366;DHT22;2196;47.422;9.656;2023-02-27T09:44:54;4.30;99.90
4366;DHT22;2196;47.422;9.656;2023-02-27T09:47:26;4.20;99.90
4366;DHT22;2196;47.422;9.656;2023-02-27T09:50:00;3.90;99.90
4366;DHT22;2196;47.422;9.656;2023-02-27T09:52:30;3.90;99.90
4366;DHT22;2196;47.422;9.656;2023-02-27T09:54:57;4.20;99.90
4366;DHT22;2196;47.422;9.656;2023-02-27T09:57:36;4.10;99.90
4366;DHT22;2196;47.422;9.656;2023-02-27T10:00:25;4.00;99.90
4366;DHT22;2196;47.422;9.656;2023-02-27T10:02:59;4.20;99.90
4366;DHT22;2196;47.422;9.656;2023-02-27T10:05:35;4.30;99.90
4366;DHT22;2196;47.422;9.656;2023-02-27T10:08:11;4.20;99.90
4366;DHT22;2196;47.422;9.656;2023-02-27T10:10:47;4.10;99.90
4366;DHT22;2196;47.422;9.656;2023-02-27T10:13:33;4.10;99.90
4366;DHT22;2196;47.422;9.656;2023-02-27T10:16:02;4.40;99.90
4366;DHT22;2196;47.422;9.656;2023-02-27T10:18:33;4.60;99.90
4366;DHT22;2196;47.422;9.656;2023-02-27T10:21:05;4.70;99.90
4366;DHT22;2196;47.422;9.656;2023-02-27T10:23:38;4.90;99.90
4366;DHT22;2196;47.422;9.656;2023-02-27T10:26:07;4.70;99.90
4366;DHT22;2196;47.422;9.656;2023-02-27T10:28:40;4.60;99.90
4366;DHT22;2196;47.422;9.656;2023-02-27T10:31:14;4.20;99.90
4366;DHT22;2196;47.422;9.656;2023-02-27T10:33:43;4.30;99.90
4366;DHT22;2196;47.422;9.656;2023-02-27T10:36:13;4.30;99.90
4366;DHT22;2196;47.422;9.656;2023-02-27T10:38:42;4.30;99.90
4366;DHT22;2196;47.422;9.656;2023-02-27T10:41:13;4.00;99.90
4366;DHT22;2196;47.422;9.656;2023-02-27T10:43:42;4.00;99.90
4366;DHT22;2196;47.422;9.656;2023-02-27T10:46:13;3.90;99.90
4366;DHT22;2196;47.422;9.656;2023-02-27T10:48:40;4.10;99.90
4366;DHT22;2196;47.422;9.656;2023-02-27T10:51:22;4.10;99.90
4366;DHT22;2196;47.422;9.656;2023-02-27T10:53:50;4.00;99.90
4366;DHT22;2196;47.422;9.656;2023-02-27T10:56:24;3.90;99.90
4366;DHT22;2196;47.422;9.656;2023-02-27T10:59:03;4.00;99.90
4366;DHT22;2196;47.422;9.656;2023-02-27T11:01:41;3.80;99.90
4366;DHT22;2196;47.422;9.656;2023-02-27T11:04:10;3.70;99.90
4366;DHT22;2196;47.422;9.656;2023-02-27T11:06:37;3.70;99.90
4366;DHT22;2196;47.422;9.656;2023-02-27T11:09:18;3.60;99.90
4366;DHT22;2196;47.422;9.656;2023-02-27T11:11:47;3.80;99.90
4366;DHT22;2196;47.422;9.656;2023-02-27T11:14:24;3.70;99.90
4366;DHT22;2196;47.422;9.656;2023-02-27T11:16:53;3.90;99.90
4366;DHT22;2196;47.422;9.656;2023-02-27T11:19:28;3.90;99.90
4366;DHT22;2196;47.422;9.656;2023-02-27T11:22:02;3.80;99.90
4366;DHT22;2196;47.422;9.656;2023-02-27T11:24:30;4.00;99.90
4366;DHT22;2196;47.422;9.656;2023-02-27T11:26:58;4.20;99.90
4366;DHT22;2196;47.422;9.656;2023-02-27T11:29:27;4.00;99.90
4366;DHT22;2196;47.422;9.656;2023-02-27T11:31:56;4.20;99.90
4366;DHT22;2196;47.422;9.656;2023-02-27T11:34:27;4.30;99.90
4366;DHT22;2196;47.422;9.656;2023-02-27T11:36:56;4.40;99.90
4366;DHT22;2196;47.422;9.656;2023-02-27T11:39:33;4.50;99.90
4366;DHT22;2196;47.422;9.656;2023-02-27T11:42:12;4.60;99.90
4366;DHT22;2196;47.422;9.656;2023-02-27T11:44:49;4.20;99.90
4366;DHT22;2196;47.422;9.656;2023-02-27T11:47:22;4.20;99.90
4366;DHT22;2196;47.422;9.656;2023-02-27T11:50:11;4.10;99.90
4366;DHT22;2196;47.422;9.656;2023-02-27T11:52:47;4.20;99.90
4366;DHT22;2196;47.422;9.656;2023-02-27T11:55:18;4.10;99.90
4366;DHT22;2196;47.422;9.656;2023-02-27T11:57:49;4.20;99.90
4366;DHT22;2196;47.422;9.656;2023-02-27T12:00:22;4.10;99.90
4366;DHT22;2196;47.422;9.656;2023-02-27T12:02:56;4.20;99.90
4366;DHT22;2196;47.422;9.656;2023-02-27T12:05:26;4.00;99.90
4366;DHT22;2196;47.422;9.656;2023-02-27T12:07:58;4.10;99.90
4366;DHT22;2196;47.422;9.656;2023-02-27T12:10:28;4.10;99.90
4366;DHT22;2196;47.422;9.656;2023-02-27T12:12:59;4.20;99.90
4366;DHT22;2196;47.422;9.656;2023-02-27T12:15:36;4.00;99.90
4366;DHT22;2196;47.422;9.656;2023-02-27T12:18:15;4.00;99.90
4366;DHT22;2196;47.422;9.656;2023-02-27T12:20:49;3.70;99.90
4366;DHT22;2196;47.422;9.656;2023-02-27T12:23:22;3.60;99.90
4366;DHT22;2196;47.422;9.656;2023-02-27T12:25:55;3.50;99.90
4366;DHT22;2196;47.422;9.656;2023-02-27T12:28:34;3.50;99.90
4366;DHT22;2196;47.422;9.656;2023-02-27T12:31:37;3.80;99.90
4366;DHT22;2196;47.422;9.656;2023-02-27T12:34:12;3.80;99.90
4366;DHT22;2196;47.422;9.656;2023-02-27T12:36:41;3.80;99.90
4366;DHT22;2196;47.422;9.656;2023-02-27T12:39:16;3.80;99.90
4366;DHT22;2196;47.422;9.656;2023-02-27T12:42:10;3.90;99.90
4366;DHT22;2196;47.422;9.656;2023-02-27T12:45:07;3.80;99.90
4366;DHT22;2196;47.422;9.656;2023-02-27T12:47:45;3.90;99.90
4366;DHT22;2196;47.422;9.656;2023-02-27T12:50:16;4.00;99.90
4366;DHT22;2196;47.422;9.656;2023-02-27T12:53:00;3.90;99.90
4366;DHT22;2196;47.422;9.656;2023-02-27T12:55:32;3.80;99.90
4366;DHT22;2196;47.422;9.656;2023-02-27T12:58:15;3.60;99.90
4366;DHT22;2196;47.422;9.656;2023-02-27T13:00:46;3.50;99.90
4366;DHT22;2196;47.422;9.656;2023-02-27T13:03:20;3.60;99.90
4366;DHT22;2196;47.422;9.656;2023-02-27T13:05:55;3.50;99.90
4366;DHT22;2196;47.422;9.656;2023-02-27T13:08:50;3.30;99.90
4366;DHT22;2196;47.422;9.656;2023-02-27T13:11:31;3.30;99.90
4366;DHT22;2196;47.422;9.656;2023-02-27T13:14:06;3.10;99.90
4366;DHT22;2196;47.422;9.656;2023-02-27T13:16:42;3.20;99.90
4366;DHT22;2196;47.422;9.656;2023-02-27T13:19:15;3.10;99.90
4366;DHT22;2196;47.422;9.656;2023-02-27T13:21:48;3.20;99.90
4366;DHT22;2196;47.422;9.656;2023-02-27T13:24:22;3.10;99.90
4366;DHT22;2196;47.422;9.656;2023-02-27T13:26:55;3.30;99.90
4366;DHT22;2196;47.422;9.656;2023-02-27T13:29:34;3.40;99.90
4366;DHT22;2196;47.422;9.656;2023-02-27T13:32:18;3.50;99.90
4366;DHT22;2196;47.422;9.656;2023-02-27T13:34:53;3.40;99.90
4366;DHT22;2196;47.422;9.656;2023-02-27T13:37:21;3.40;99.90
4366;DHT22;2196;47.422;9.656;2023-02-27T13:39:53;3.60;99.90
4366;DHT22;2196;47.422;9.656;2023-02-27T13:42:49;3.60;99.90
4366;DHT22;2196;47.422;9.656;2023-02-27T13:45:47;3.70;99.90
4366;DHT22;2196;47.422;9.656;2023-02-27T13:51:47;3.70;99.90
4366;DHT22;2196;47.422;9.656;2023-02-27T13:54:31;3.70;99.90
4366;DHT22;2196;47.422;9.656;2023-02-27T13:57:23;3.80;99.90
4366;DHT22;2196;47.422;9.656;2023-02-27T13:59:56;3.70;99.90
4366;DHT22;2196;47.422;9.656;2023-02-27T14:02:31;3.70;99.90
4366;DHT22;2196;47.422;9.656;2023-02-27T14:05:03;3.50;99.90
4366;DHT22;2196;47.422;9.656;2023-02-27T14:07:45;3.60;99.90
4366;DHT22;2196;47.422;9.656;2023-02-27T14:10:20;3.60;99.90
4366;DHT22;2196;47.422;9.656;2023-02-27T14:12:47;3.60;99.90
4366;DHT22;2196;47.422;9.656;2023-02-27T14:18:49;3.70;99.90
4366;DHT22;2196;47.422;9.656;2023-02-27T14:21:51;3.80;99.90
4366;DHT22;2196;47.422;9.656;2023-02-27T14:24:23;3.90;99.90
4366;DHT22;2196;47.422;9.656;2023-02-27T14:26:51;4.00;99.90
4366;DHT22;2196;47.422;9.656;2023-02-27T14:29:21;4.10;99.90
4366;DHT22;2196;47.422;9.656;2023-02-27T14:31:50;3.90;99.90
4366;DHT22;2196;47.422;9.656;2023-02-27T14:34:20;3.90;99.90
4366;DHT22;2196;47.422;9.656;2023-02-27T14:36:49;3.80;99.90
4366;DHT22;2196;47.422;9.656;2023-02-27T14:39:21;3.80;99.90
4366;DHT22;2196;47.422;9.656;2023-02-27T14:41:56;3.90;99.90
4366;DHT22;2196;47.422;9.656;2023-02-27T14:44:26;3.90;99.90
4366;DHT22;2196;47.422;9.656;2023-02-27T14:46:54;3.80;99.90
4366;DHT22;2196;47.422;9.656;2023-02-27T14:49:25;3.80;99.90
4366;DHT22;2196;47.422;9.656;2023-02-27T14:51:53;3.60;99.90
4366;DHT22;2196;47.422;9.656;2023-02-27T14:54:23;3.60;99.90
4366;DHT22;2196;47.422;9.656;2023-02-27T14:56:55;3.50;99.90
4366;DHT22;2196;47.422;9.656;2023-02-27T14:59:25;3.60;99.90
4366;DHT22;2196;47.422;9.656;2023-02-27T15:01:54;3.50;99.90
4366;DHT22;2196;47.422;9.656;2023-02-27T15:04:23;3.70;99.90
4366;DHT22;2196;47.422;9.656;2023-02-27T15:06:52;3.60;99.90
4366;DHT22;2196;47.422;9.656;2023-02-27T15:09:24;3.50;99.90
4366;DHT22;2196;47.422;9.656;2023-02-27T15:11:54;3.40;99.90
4366;DHT22;2196;47.422;9.656;2023-02-27T15:14:25;3.50;99.90
4366;DHT22;2196;47.422;9.656;2023-02-27T15:16:56;3.50;99.90
4366;DHT22;2196;47.422;9.656;2023-02-27T15:19:25;3.40;99.90
4366;DHT22;2196;47.422;9.656;2023-02-27T15:21:54;3.50;99.90
4366;DHT22;2196;47.422;9.656;2023-02-27T15:24:27;3.50;99.90
4366;DHT22;2196;47.422;9.656;2023-02-27T15:26:56;3.40;99.90
4366;DHT22;2196;47.422;9.656;2023-02-27T15:29:26;3.50;99.90
4366;DHT22;2196;47.422;9.656;2023-02-27T15:31:54;3.50;99.90
4366;DHT22;2196;47.422;9.656;2023-02-27T15:34:21;3.50;99.90
4366;DHT22;2196;47.422;9.656;2023-02-27T15:36:51;3.60;99.90
4366;DHT22;2196;47.422;9.656;2023-02-27T15:39:21;3.40;99.90
4366;DHT22;2196;47.422;9.656;2023-02-27T15:41:52;3.20;99.90
4366;DHT22;2196;47.422;9.656;2023-02-27T15:44:23;3.10;99.90
4366;DHT22;2196;47.422;9.656;2023-02-27T15:46:50;3.00;99.90
4366;DHT22;2196;47.422;9.656;2023-02-27T15:49:20;2.80;99.90
4366;DHT22;2196;47.422;9.656;2023-02-27T15:51:56;2.80;99.90
4366;DHT22;2196;47.422;9.656;2023-02-27T15:54:25;2.90;99.90
4366;DHT22;2196;47.422;9.656;2023-02-27T15:56:53;2.80;99.90
4366;DHT22;2196;47.422;9.656;2023-02-27T15:59:20;2.80;99.90
4366;DHT22;2196;47.422;9.656;2023-02-27T16:01:47;2.70;99.90
4366;DHT22;2196;47.422;9.656;2023-02-27T16:04:21;2.70;99.90
4366;DHT22;2196;47.422;9.656;2023-02-27T16:06:54;2.40;99.90
4366;DHT22;2196;47.422;9.656;2023-02-27T16:09:25;2.40;99.90
4366;DHT22;2196;47.422;9.656;2023-02-27T16:12:20;2.50;99.90
4366;DHT22;2196;47.422;9.656;2023-02-27T16:14:48;2.50;99.90
4366;DHT22;2196;47.422;9.656;2023-02-27T16:17:25;2.50;99.90
4366;DHT22;2196;47.422;9.656;2023-02-27T16:19:53;2.40;99.90
4366;DHT22;2196;47.422;9.656;2023-02-27T16:22:20;2.50;99.90
4366;DHT22;2196;47.422;9.656;2023-02-27T16:24:48;2.60;99.90
4366;DHT22;2196;47.422;9.656;2023-02-27T16:27:21;2.60;99.90
4366;DHT22;2196;47.422;9.656;2023-02-27T16:29:50;2.60;99.90
4366;DHT22;2196;47.422;9.656;2023-02-27T16:32:22;2.60;99.90
4366;DHT22;2196;47.422;9.656;2023-02-27T16:34:49;2.50;99.90
4366;DHT22;2196;47.422;9.656;2023-02-27T16:37:19;2.50;99.90
4366;DHT22;2196;47.422;9.656;2023-02-27T16:39:48;2.40;99.90
4366;DHT22;2196;47.422;9.656;2023-02-27T16:42:16;2.30;99.90
4366;DHT22;2196;47.422;9.656;2023-02-27T16:44:45;2.20;99.90
4366;DHT22;2196;47.422;9.656;2023-02-27T16:47:12;2.10;99.90
4366;DHT22;2196;47.422;9.656;2023-02-27T16:49:39;2.00;99.90
4366;DHT22;2196;47.422;9.656;2023-02-27T16:52:07;2.00;99.90
4366;DHT22;2196;47.422;9.656;2023-02-27T16:54:34;1.90;99.90
4366;DHT22;2196;47.422;9.656;2023-02-27T16:57:02;1.80;99.90